Ceylon — 9VMU6 — position and weather

sailwx.info

Track history (hours):
 
Tides and Currents Weather Stations Pressure Air Temp Water Temp Dewpoint Dewpoint Depression Visibility Wind Speed Wind Dir Waves Ship Positions

Ceylon

Last reported at 2017-Jun-11 23:02 UTC. Time now 2017-Jun-23 10:38 UTC.
Position S 00°20' W 047°23'.
Warning: this ship's position is 11 days out of date.

Length 180 m; draft 7 m.

Type: Tanker. MMSI: 563847000.

Date/timePositionNaut miles runAvg speedWind from/ knotsBaromVisibWave heightAir tempDewpointWater temp
2017-Jun-11 23:02S 00°20' W 047°23'0 0.0
2017-Jun-11 23:00S 00°20' W 047°23'2310.2
2017-Jun-11 20:45S 00°26' W 047°45'2 9.2
2017-Jun-11 20:30S 00°26' W 047°47'4 8.3
2017-Jun-11 19:59S 00°28' W 047°51'613.1
2017-Jun-11 19:30S 00°29' W 047°57'713.7
2017-Jun-11 19:00S 00°32' W 048°03'714.1
2017-Jun-11 18:30S 00°37' W 048°09'713.5
2017-Jun-11 18:00S 00°41' W 048°14'713.4
2017-Jun-11 17:30S 00°47' W 048°17'612.7
2017-Jun-11 17:00S 00°53' W 048°21'612.2
2017-Jun-11 16:30S 00°58' W 048°24'510.9
2017-Jun-11 16:00S 01°03' W 048°26'510.1
2017-Jun-11 15:30S 01°07' W 048°29'5 9.8
2017-Jun-11 15:00S 01°12' W 048°29'9 9.5
2017-Jun-11 14:00S 01°21' W 048°29'3 6.3
2017-Jun-11 13:30S 01°24' W 048°30'0 0.1
2017-Jun-11 12:58S 01°24' W 048°30'0 0.0
2017-Jun-11 12:28S 01°24' W 048°30'0 0.0
2017-Jun-11 11:58S 01°24' W 048°30'0 0.0
2017-Jun-11 11:28S 01°24' W 048°30'0 0.0
2017-Jun-11 10:58S 01°24' W 048°30'0 0.0
2017-Jun-11 10:30S 01°24' W 048°30'0 0.0
2017-Jun-11 09:57S 01°24' W 048°30'0 0.0
2017-Jun-11 09:26S 01°24' W 048°30'0 0.2
2017-Jun-11 08:59S 01°24' W 048°30'0 0.1
2017-Jun-11 08:29S 01°24' W 048°30'0 0.1
2017-Jun-11 08:00S 01°24' W 048°30'0 0.2
2017-Jun-11 07:21S 01°24' W 048°30'0 0.0
2017-Jun-11 07:00S 01°24' W 048°30'0 0.0
2017-Jun-11 06:11S 01°24' W 048°30'0 0.0
2017-Jun-11 05:59S 01°24' W 048°30'0 0.0
2017-Jun-11 05:30S 01°24' W 048°30'0 0.0
2017-Jun-11 04:56S 01°24' W 048°30'0 0.0
2017-Jun-11 04:14S 01°24' W 048°30'0 0.0
2017-Jun-11 03:56S 01°24' W 048°30'0 0.0
2017-Jun-11 03:23S 01°24' W 048°30'0 0.0
2017-Jun-11 02:47S 01°24' W 048°30'0 0.0
2017-Jun-11 02:23S 01°24' W 048°30'0 0.0
2017-Jun-11 01:44S 01°24' W 048°30'0 0.0
2017-Jun-11 01:15S 01°24' W 048°30'0 0.0
2017-Jun-11 00:57S 01°24' W 048°30'0 0.0
2017-Jun-11 00:30S 01°24' W 048°30'0 0.0
2017-Jun-11 00:00S 01°24' W 048°30'0 0.0
2017-Jun-10 23:30S 01°24' W 048°30'0 0.0
2017-Jun-10 23:00S 01°24' W 048°30'0 0.0
2017-Jun-10 22:30S 01°24' W 048°30'0 0.2
2017-Jun-10 22:00S 01°24' W 048°30'0 0.1
2017-Jun-10 21:30S 01°24' W 048°30'0 0.3
2017-Jun-10 21:00S 01°24' W 048°30'0 0.1
2017-Jun-10 20:30S 01°24' W 048°30'0 0.1
2017-Jun-10 20:00S 01°24' W 048°30'0 0.1
2017-Jun-10 19:30S 01°24' W 048°30'0 0.1
2017-Jun-10 19:00S 01°24' W 048°30'0 0.0
2017-Jun-10 18:30S 01°24' W 048°30'0 0.0
2017-Jun-10 18:00S 01°24' W 048°30'0 0.5
2017-Jun-10 17:30S 01°24' W 048°30'0 0.4
2017-Jun-10 16:59S 01°24' W 048°30'0 0.0
2017-Jun-10 16:30S 01°24' W 048°30'0 0.2
2017-Jun-10 16:00S 01°24' W 048°30'0 0.2
2017-Jun-10 15:30S 01°24' W 048°30'0 0.0
2017-Jun-10 15:00S 01°24' W 048°30'0 0.0
2017-Jun-10 14:00S 01°24' W 048°30'0 0.0
2017-Jun-10 13:30S 01°24' W 048°30'0 0.0
2017-Jun-10 12:57S 01°24' W 048°30'0 0.0
2017-Jun-10 12:30S 01°24' W 048°30'0 0.1
2017-Jun-10 12:00S 01°24' W 048°30'0 0.1
2017-Jun-10 11:30S 01°24' W 048°30'0 0.0
2017-Jun-10 10:59S 01°24' W 048°30'0 0.0
2017-Jun-10 10:29S 01°24' W 048°30'0 0.4
2017-Jun-10 09:59S 01°24' W 048°30'0 0.2
2017-Jun-10 09:28S 01°24' W 048°30'0 0.3
2017-Jun-10 09:00S 01°24' W 048°30'0 0.3
2017-Jun-10 08:25S 01°24' W 048°30'0 0.2
2017-Jun-10 07:59S 01°24' W 048°30'0 0.1
2017-Jun-10 07:30S 01°24' W 048°30'0 0.1
2017-Jun-10 06:59S 01°24' W 048°30'0 0.0
2017-Jun-10 06:29S 01°24' W 048°30'0 0.0
2017-Jun-10 05:58S 01°24' W 048°30'0 0.0
2017-Jun-10 05:28S 01°24' W 048°30'0 0.0
2017-Jun-10 04:59S 01°24' W 048°30'0 0.0
2017-Jun-10 04:29S 01°24' W 048°30'0 0.0
2017-Jun-10 03:59S 01°24' W 048°30'0 0.0
2017-Jun-10 03:28S 01°24' W 048°30'0 0.0
2017-Jun-10 02:55S 01°24' W 048°30'1 2.7
2017-Jun-10 02:29S 01°25' W 048°29'1 2.5
2017-Jun-10 02:00S 01°24' W 048°30'0 0.3
2017-Jun-10 01:28S 01°24' W 048°30'0 0.2
2017-Jun-10 00:58S 01°24' W 048°30'0 0.0
2017-Jun-10 00:28S 01°24' W 048°30'0 0.2
2017-Jun-09 23:58S 01°24' W 048°30'0 0.0
2017-Jun-09 23:28S 01°24' W 048°30'0 0.0
2017-Jun-09 22:55S 01°24' W 048°30'0 0.1
2017-Jun-09 22:22S 01°24' W 048°30'0 0.1
2017-Jun-09 22:00S 01°24' W 048°30'0 0.0
2017-Jun-09 21:30S 01°24' W 048°30'0 0.0
2017-Jun-09 20:57S 01°24' W 048°30'0 0.0
2017-Jun-09 20:22S 01°24' W 048°30'0 0.0
2017-Jun-09 20:00S 01°24' W 048°30'0 0.0
2017-Jun-09 19:28S 01°24' W 048°30'0 0.0
2017-Jun-09 18:57S 01°24' W 048°30'0 0.0
2017-Jun-09 18:30S 01°24' W 048°30'0 0.0
2017-Jun-09 17:58S 01°24' W 048°30'0 0.3
2017-Jun-09 17:25S 01°24' W 048°30'0 0.2
2017-Jun-09 16:58S 01°24' W 048°30'0 0.2
2017-Jun-09 15:31S 01°24' W 048°29'0 2.5
2017-Jun-09 15:28S 01°24' W 048°29'0 0.6
2017-Jun-09 14:58S 01°24' W 048°30'0 0.4
2017-Jun-09 14:28S 01°24' W 048°30'1 1.0
2017-Jun-09 13:25S 01°24' W 048°31'1 2.6
2017-Jun-09 13:00S 01°25' W 048°31'0 0.4
2017-Jun-09 12:29S 01°26' W 048°31'0 0.0
2017-Jun-09 11:59S 01°26' W 048°31'0 0.0
2017-Jun-09 11:26S 01°26' W 048°31'0 0.1
2017-Jun-09 10:59S 01°26' W 048°31'0 0.3
2017-Jun-09 10:29S 01°25' W 048°31'0 0.1
2017-Jun-09 09:59S 01°25' W 048°31'0 0.0
2017-Jun-09 09:26S 01°25' W 048°31'0 0.7
2017-Jun-09 08:58S 01°25' W 048°31'0 0.3
2017-Jun-09 08:29S 01°25' W 048°31'0 0.2
2017-Jun-09 07:59S 01°25' W 048°31'0 0.1
2017-Jun-09 07:29S 01°25' W 048°31'0 0.7
2017-Jun-09 07:00S 01°25' W 048°31'0 0.2
2017-Jun-09 06:30S 01°25' W 048°31'0 0.3
2017-Jun-09 06:00S 01°25' W 048°31'0 0.3
2017-Jun-09 05:30S 01°25' W 048°31'0 0.0
2017-Jun-09 05:00S 01°25' W 048°31'0 0.1
2017-Jun-09 04:30S 01°25' W 048°31'0 0.3
2017-Jun-09 04:00S 01°25' W 048°32'0 0.2
2017-Jun-09 03:30S 01°26' W 048°31'0 0.0
2017-Jun-09 03:00S 01°26' W 048°31'1 1.7
2017-Jun-09 02:27S 01°25' W 048°31'0 0.6
2017-Jun-09 02:00S 01°25' W 048°32'1 1.8
2017-Jun-09 01:30S 01°25' W 048°32'0 0.1
2017-Jun-09 01:00S 01°26' W 048°31'0 0.2
2017-Jun-09 00:30S 01°26' W 048°31'0 0.1
2017-Jun-09 00:00S 01°26' W 048°31'0 0.0
2017-Jun-08 23:30S 01°26' W 048°31'0 0.0
2017-Jun-08 23:00S 01°26' W 048°31'0 0.3
2017-Jun-08 22:30S 01°25' W 048°31'0 0.2
2017-Jun-08 22:00S 01°25' W 048°31'0 0.0
2017-Jun-08 21:30S 01°25' W 048°31'0 0.0
2017-Jun-08 21:00S 01°25' W 048°31'0 0.1
2017-Jun-08 20:30S 01°25' W 048°31'0 0.0
2017-Jun-08 19:57S 01°25' W 048°31'0 0.0
2017-Jun-08 19:30S 01°25' W 048°31'0 0.0
2017-Jun-08 18:54S 01°25' W 048°31'0 0.0
2017-Jun-08 18:28S 01°25' W 048°31'0 0.0
2017-Jun-08 17:55S 01°25' W 048°31'0 0.1
2017-Jun-08 17:30S 01°25' W 048°31'0 0.2
2017-Jun-08 16:57S 01°25' W 048°31'0 0.1
2017-Jun-08 16:30S 01°25' W 048°31'0 0.0
2017-Jun-08 15:54S 01°25' W 048°31'0 0.2
2017-Jun-08 15:30S 01°25' W 048°31'0 0.3
2017-Jun-08 15:00S 01°26' W 048°31'0 0.1
2017-Jun-08 14:30S 01°26' W 048°31'0 0.0
2017-Jun-08 13:30S 01°26' W 048°31'0 0.0
2017-Jun-08 13:00S 01°26' W 048°31'0 0.0
2017-Jun-08 12:28S 01°26' W 048°31'0 0.0
2017-Jun-08 11:58S 01°26' W 048°31'0 0.2
2017-Jun-08 11:28S 01°26' W 048°31'0 0.3
2017-Jun-08 10:58S 01°26' W 048°31'0 0.0
2017-Jun-08 10:28S 01°26' W 048°31'0 0.2
2017-Jun-08 09:58S 01°25' W 048°32'0 0.3
2017-Jun-08 09:28S 01°25' W 048°31'0 0.1
2017-Jun-08 08:58S 01°25' W 048°31'1 1.5
2017-Jun-08 08:28S 01°25' W 048°31'0 0.7
2017-Jun-08 07:58S 01°25' W 048°31'0 0.4
2017-Jun-08 07:22S 01°25' W 048°31'0 0.6
2017-Jun-08 06:58S 01°25' W 048°31'1 1.2
2017-Jun-08 06:28S 01°25' W 048°31'0 0.2
2017-Jun-08 05:58S 01°25' W 048°31'0 0.0
2017-Jun-08 05:28S 01°25' W 048°31'0 0.0
2017-Jun-08 04:58S 01°25' W 048°31'0 0.0
2017-Jun-08 04:28S 01°25' W 048°31'0 0.1
2017-Jun-08 03:58S 01°25' W 048°31'0 0.2
2017-Jun-08 03:28S 01°25' W 048°32'0 0.2
2017-Jun-08 02:58S 01°26' W 048°31'0 0.3
2017-Jun-08 02:28S 01°26' W 048°32'0 0.2
2017-Jun-08 01:58S 01°26' W 048°32'0 0.0
2017-Jun-08 01:28S 01°26' W 048°31'0 0.1
2017-Jun-08 00:58S 01°26' W 048°31'0 0.1
2017-Jun-08 00:28S 01°26' W 048°31'0 0.1
2017-Jun-07 23:58S 01°26' W 048°31'0 0.0
2017-Jun-07 23:28S 01°26' W 048°31'0 0.0
2017-Jun-07 22:58S 01°26' W 048°31'0 0.0
2017-Jun-07 22:28S 01°26' W 048°31'0 0.3
2017-Jun-07 21:58S 01°25' W 048°31'0 0.2
2017-Jun-07 21:28S 01°25' W 048°31'0 0.0
2017-Jun-07 20:58S 01°25' W 048°31'0 0.0
2017-Jun-07 20:28S 01°25' W 048°31'0 0.0
2017-Jun-07 19:55S 01°25' W 048°31'0 0.0
2017-Jun-07 19:28S 01°25' W 048°31'1 1.4
2017-Jun-07 18:58S 01°26' W 048°32'1 1.3
2017-Jun-07 18:28S 01°25' W 048°31'0 0.1
2017-Jun-07 17:58S 01°25' W 048°31'0 0.0
2017-Jun-07 17:28S 01°25' W 048°31'0 0.3
2017-Jun-07 16:58S 01°25' W 048°31'0 0.2
2017-Jun-07 16:28S 01°25' W 048°31'  
Track history (hours):
 
Tides and Currents Weather Stations Pressure Air Temp Water Temp Dewpoint Dewpoint Depression Visibility Wind Speed Wind Dir Waves Ship Positions

Ceylon

Last reported at 2017-Jun-11 23:02 UTC. Time now 2017-Jun-23 10:38 UTC.
Position S 00°20' W 047°23'.
Warning: this ship's position is 11 days out of date.

Length 180 m; draft 7 m.

Type: Tanker. MMSI: 563847000.

Date/timePositionNaut miles runAvg speedWind from/ knotsBaromVisibWave heightAir tempDewpointWater temp
2017-Jun-11 23:02S 00°20' W 047°23'0 0.0
2017-Jun-11 23:00S 00°20' W 047°23'2310.2
2017-Jun-11 20:45S 00°26' W 047°45'2 9.2
2017-Jun-11 20:30S 00°26' W 047°47'4 8.3
2017-Jun-11 19:59S 00°28' W 047°51'613.1
2017-Jun-11 19:30S 00°29' W 047°57'713.7
2017-Jun-11 19:00S 00°32' W 048°03'714.1
2017-Jun-11 18:30S 00°37' W 048°09'713.5
2017-Jun-11 18:00S 00°41' W 048°14'713.4
2017-Jun-11 17:30S 00°47' W 048°17'612.7
2017-Jun-11 17:00S 00°53' W 048°21'612.2
2017-Jun-11 16:30S 00°58' W 048°24'510.9
2017-Jun-11 16:00S 01°03' W 048°26'510.1
2017-Jun-11 15:30S 01°07' W 048°29'5 9.8
2017-Jun-11 15:00S 01°12' W 048°29'9 9.5
2017-Jun-11 14:00S 01°21' W 048°29'3 6.3
2017-Jun-11 13:30S 01°24' W 048°30'0 0.1
2017-Jun-11 12:58S 01°24' W 048°30'0 0.0
2017-Jun-11 12:28S 01°24' W 048°30'0 0.0
2017-Jun-11 11:58S 01°24' W 048°30'0 0.0
2017-Jun-11 11:28S 01°24' W 048°30'0 0.0
2017-Jun-11 10:58S 01°24' W 048°30'0 0.0
2017-Jun-11 10:30S 01°24' W 048°30'0 0.0
2017-Jun-11 09:57S 01°24' W 048°30'0 0.0
2017-Jun-11 09:26S 01°24' W 048°30'0 0.2
2017-Jun-11 08:59S 01°24' W 048°30'0 0.1
2017-Jun-11 08:29S 01°24' W 048°30'0 0.1
2017-Jun-11 08:00S 01°24' W 048°30'0 0.2
2017-Jun-11 07:21S 01°24' W 048°30'0 0.0
2017-Jun-11 07:00S 01°24' W 048°30'0 0.0
2017-Jun-11 06:11S 01°24' W 048°30'0 0.0
2017-Jun-11 05:59S 01°24' W 048°30'0 0.0
2017-Jun-11 05:30S 01°24' W 048°30'0 0.0
2017-Jun-11 04:56S 01°24' W 048°30'0 0.0
2017-Jun-11 04:14S 01°24' W 048°30'0 0.0
2017-Jun-11 03:56S 01°24' W 048°30'0 0.0
2017-Jun-11 03:23S 01°24' W 048°30'0 0.0
2017-Jun-11 02:47S 01°24' W 048°30'0 0.0
2017-Jun-11 02:23S 01°24' W 048°30'0 0.0
2017-Jun-11 01:44S 01°24' W 048°30'0 0.0
2017-Jun-11 01:15S 01°24' W 048°30'0 0.0
2017-Jun-11 00:57S 01°24' W 048°30'0 0.0
2017-Jun-11 00:30S 01°24' W 048°30'0 0.0
2017-Jun-11 00:00S 01°24' W 048°30'0 0.0
2017-Jun-10 23:30S 01°24' W 048°30'0 0.0
2017-Jun-10 23:00S 01°24' W 048°30'0 0.0
2017-Jun-10 22:30S 01°24' W 048°30'0 0.2
2017-Jun-10 22:00S 01°24' W 048°30'0 0.1
2017-Jun-10 21:30S 01°24' W 048°30'0 0.3
2017-Jun-10 21:00S 01°24' W 048°30'0 0.1
2017-Jun-10 20:30S 01°24' W 048°30'0 0.1
2017-Jun-10 20:00S 01°24' W 048°30'0 0.1
2017-Jun-10 19:30S 01°24' W 048°30'0 0.1
2017-Jun-10 19:00S 01°24' W 048°30'0 0.0
2017-Jun-10 18:30S 01°24' W 048°30'0 0.0
2017-Jun-10 18:00S 01°24' W 048°30'0 0.5
2017-Jun-10 17:30S 01°24' W 048°30'0 0.4
2017-Jun-10 16:59S 01°24' W 048°30'0 0.0
2017-Jun-10 16:30S 01°24' W 048°30'0 0.2
2017-Jun-10 16:00S 01°24' W 048°30'0 0.2
2017-Jun-10 15:30S 01°24' W 048°30'0 0.0
2017-Jun-10 15:00S 01°24' W 048°30'0 0.0
2017-Jun-10 14:00S 01°24' W 048°30'0 0.0
2017-Jun-10 13:30S 01°24' W 048°30'0 0.0
2017-Jun-10 12:57S 01°24' W 048°30'0 0.0
2017-Jun-10 12:30S 01°24' W 048°30'0 0.1
2017-Jun-10 12:00S 01°24' W 048°30'0 0.1
2017-Jun-10 11:30S 01°24' W 048°30'0 0.0
2017-Jun-10 10:59S 01°24' W 048°30'0 0.0
2017-Jun-10 10:29S 01°24' W 048°30'0 0.4
2017-Jun-10 09:59S 01°24' W 048°30'0 0.2
2017-Jun-10 09:28S 01°24' W 048°30'0 0.3
2017-Jun-10 09:00S 01°24' W 048°30'0 0.3
2017-Jun-10 08:25S 01°24' W 048°30'0 0.2
2017-Jun-10 07:59S 01°24' W 048°30'0 0.1
2017-Jun-10 07:30S 01°24' W 048°30'0 0.1
2017-Jun-10 06:59S 01°24' W 048°30'0 0.0
2017-Jun-10 06:29S 01°24' W 048°30'0 0.0
2017-Jun-10 05:58S 01°24' W 048°30'0 0.0
2017-Jun-10 05:28S 01°24' W 048°30'0 0.0
2017-Jun-10 04:59S 01°24' W 048°30'0 0.0
2017-Jun-10 04:29S 01°24' W 048°30'0 0.0
2017-Jun-10 03:59S 01°24' W 048°30'0 0.0
2017-Jun-10 03:28S 01°24' W 048°30'0 0.0
2017-Jun-10 02:55S 01°24' W 048°30'1 2.7
2017-Jun-10 02:29S 01°25' W 048°29'1 2.5
2017-Jun-10 02:00S 01°24' W 048°30'0 0.3
2017-Jun-10 01:28S 01°24' W 048°30'0 0.2
2017-Jun-10 00:58S 01°24' W 048°30'0 0.0
2017-Jun-10 00:28S 01°24' W 048°30'0 0.2
2017-Jun-09 23:58S 01°24' W 048°30'0 0.0
2017-Jun-09 23:28S 01°24' W 048°30'0 0.0
2017-Jun-09 22:55S 01°24' W 048°30'0 0.1
2017-Jun-09 22:22S 01°24' W 048°30'0 0.1
2017-Jun-09 22:00S 01°24' W 048°30'0 0.0
2017-Jun-09 21:30S 01°24' W 048°30'0 0.0
2017-Jun-09 20:57S 01°24' W 048°30'0 0.0
2017-Jun-09 20:22S 01°24' W 048°30'0 0.0
2017-Jun-09 20:00S 01°24' W 048°30'0 0.0
2017-Jun-09 19:28S 01°24' W 048°30'0 0.0
2017-Jun-09 18:57S 01°24' W 048°30'0 0.0
2017-Jun-09 18:30S 01°24' W 048°30'0 0.0
2017-Jun-09 17:58S 01°24' W 048°30'0 0.3
2017-Jun-09 17:25S 01°24' W 048°30'0 0.2
2017-Jun-09 16:58S 01°24' W 048°30'0 0.2
2017-Jun-09 15:31S 01°24' W 048°29'0 2.5
2017-Jun-09 15:28S 01°24' W 048°29'0 0.6
2017-Jun-09 14:58S 01°24' W 048°30'0 0.4
2017-Jun-09 14:28S 01°24' W 048°30'1 1.0
2017-Jun-09 13:25S 01°24' W 048°31'1 2.6
2017-Jun-09 13:00S 01°25' W 048°31'0 0.4
2017-Jun-09 12:29S 01°26' W 048°31'0 0.0
2017-Jun-09 11:59S 01°26' W 048°31'0 0.0
2017-Jun-09 11:26S 01°26' W 048°31'0 0.1
2017-Jun-09 10:59S 01°26' W 048°31'0 0.3
2017-Jun-09 10:29S 01°25' W 048°31'0 0.1
2017-Jun-09 09:59S 01°25' W 048°31'0 0.0
2017-Jun-09 09:26S 01°25' W 048°31'0 0.7
2017-Jun-09 08:58S 01°25' W 048°31'0 0.3
2017-Jun-09 08:29S 01°25' W 048°31'0 0.2
2017-Jun-09 07:59S 01°25' W 048°31'0 0.1
2017-Jun-09 07:29S 01°25' W 048°31'0 0.7
2017-Jun-09 07:00S 01°25' W 048°31'0 0.2
2017-Jun-09 06:30S 01°25' W 048°31'0 0.3
2017-Jun-09 06:00S 01°25' W 048°31'0 0.3
2017-Jun-09 05:30S 01°25' W 048°31'0 0.0
2017-Jun-09 05:00S 01°25' W 048°31'0 0.1
2017-Jun-09 04:30S 01°25' W 048°31'0 0.3
2017-Jun-09 04:00S 01°25' W 048°32'0 0.2
2017-Jun-09 03:30S 01°26' W 048°31'0 0.0
2017-Jun-09 03:00S 01°26' W 048°31'1 1.7
2017-Jun-09 02:27S 01°25' W 048°31'0 0.6
2017-Jun-09 02:00S 01°25' W 048°32'1 1.8
2017-Jun-09 01:30S 01°25' W 048°32'0 0.1
2017-Jun-09 01:00S 01°26' W 048°31'0 0.2
2017-Jun-09 00:30S 01°26' W 048°31'0 0.1
2017-Jun-09 00:00S 01°26' W 048°31'0 0.0
2017-Jun-08 23:30S 01°26' W 048°31'0 0.0
2017-Jun-08 23:00S 01°26' W 048°31'0 0.3
2017-Jun-08 22:30S 01°25' W 048°31'0 0.2
2017-Jun-08 22:00S 01°25' W 048°31'0 0.0
2017-Jun-08 21:30S 01°25' W 048°31'0 0.0
2017-Jun-08 21:00S 01°25' W 048°31'0 0.1
2017-Jun-08 20:30S 01°25' W 048°31'0 0.0
2017-Jun-08 19:57S 01°25' W 048°31'0 0.0
2017-Jun-08 19:30S 01°25' W 048°31'0 0.0
2017-Jun-08 18:54S 01°25' W 048°31'0 0.0
2017-Jun-08 18:28S 01°25' W 048°31'0 0.0
2017-Jun-08 17:55S 01°25' W 048°31'0 0.1
2017-Jun-08 17:30S 01°25' W 048°31'0 0.2
2017-Jun-08 16:57S 01°25' W 048°31'0 0.1
2017-Jun-08 16:30S 01°25' W 048°31'0 0.0
2017-Jun-08 15:54S 01°25' W 048°31'0 0.2
2017-Jun-08 15:30S 01°25' W 048°31'0 0.3
2017-Jun-08 15:00S 01°26' W 048°31'0 0.1
2017-Jun-08 14:30S 01°26' W 048°31'0 0.0
2017-Jun-08 13:30S 01°26' W 048°31'0 0.0
2017-Jun-08 13:00S 01°26' W 048°31'0 0.0
2017-Jun-08 12:28S 01°26' W 048°31'0 0.0
2017-Jun-08 11:58S 01°26' W 048°31'0 0.2
2017-Jun-08 11:28S 01°26' W 048°31'0 0.3
2017-Jun-08 10:58S 01°26' W 048°31'0 0.0
2017-Jun-08 10:28S 01°26' W 048°31'0 0.2
2017-Jun-08 09:58S 01°25' W 048°32'0 0.3
2017-Jun-08 09:28S 01°25' W 048°31'0 0.1
2017-Jun-08 08:58S 01°25' W 048°31'1 1.5
2017-Jun-08 08:28S 01°25' W 048°31'0 0.7
2017-Jun-08 07:58S 01°25' W 048°31'0 0.4
2017-Jun-08 07:22S 01°25' W 048°31'0 0.6
2017-Jun-08 06:58S 01°25' W 048°31'1 1.2
2017-Jun-08 06:28S 01°25' W 048°31'0 0.2
2017-Jun-08 05:58S 01°25' W 048°31'0 0.0
2017-Jun-08 05:28S 01°25' W 048°31'0 0.0
2017-Jun-08 04:58S 01°25' W 048°31'0 0.0
2017-Jun-08 04:28S 01°25' W 048°31'0 0.1
2017-Jun-08 03:58S 01°25' W 048°31'0 0.2
2017-Jun-08 03:28S 01°25' W 048°32'0 0.2
2017-Jun-08 02:58S 01°26' W 048°31'0 0.3
2017-Jun-08 02:28S 01°26' W 048°32'0 0.2
2017-Jun-08 01:58S 01°26' W 048°32'0 0.0
2017-Jun-08 01:28S 01°26' W 048°31'0 0.1
2017-Jun-08 00:58S 01°26' W 048°31'0 0.1
2017-Jun-08 00:28S 01°26' W 048°31'0 0.1
2017-Jun-07 23:58S 01°26' W 048°31'0 0.0
2017-Jun-07 23:28S 01°26' W 048°31'0 0.0
2017-Jun-07 22:58S 01°26' W 048°31'0 0.0
2017-Jun-07 22:28S 01°26' W 048°31'0 0.3
2017-Jun-07 21:58S 01°25' W 048°31'0 0.2
2017-Jun-07 21:28S 01°25' W 048°31'0 0.0
2017-Jun-07 20:58S 01°25' W 048°31'0 0.0
2017-Jun-07 20:28S 01°25' W 048°31'0 0.0
2017-Jun-07 19:55S 01°25' W 048°31'0 0.0
2017-Jun-07 19:28S 01°25' W 048°31'1 1.4
2017-Jun-07 18:58S 01°26' W 048°32'1 1.3
2017-Jun-07 18:28S 01°25' W 048°31'0 0.1
2017-Jun-07 17:58S 01°25' W 048°31'0 0.0
2017-Jun-07 17:28S 01°25' W 048°31'0 0.3
2017-Jun-07 16:58S 01°25' W 048°31'0 0.2
2017-Jun-07 16:28S 01°25' W 048°31'  

Dump ship's entire track history